createdAt,value
2018-08-23T06:00:09.877Z,26.30
2018-08-23T06:02:39.548Z,26.10
2018-08-23T06:05:09.056Z,25.30
2018-08-23T06:07:38.685Z,24.60
2018-08-23T06:10:08.302Z,24.40
2018-08-23T06:12:37.978Z,24.30
2018-08-23T06:15:08.041Z,24.20
2018-08-23T06:17:37.822Z,24.40
2018-08-23T06:20:08.029Z,24.30
2018-08-23T06:22:37.663Z,24.40
2018-08-23T06:25:06.811Z,24.30
2018-08-23T06:27:36.073Z,23.90
2018-08-23T06:30:05.737Z,23.80
2018-08-23T06:32:34.841Z,23.90
2018-08-23T06:35:04.190Z,23.90
2018-08-23T06:37:33.247Z,24.20
2018-08-23T06:40:02.421Z,24.50
2018-08-23T06:42:45.097Z,24.40
2018-08-23T06:45:14.241Z,24.60
2018-08-23T06:47:46.279Z,24.60
2018-08-23T06:50:15.351Z,24.50
2018-08-23T06:52:48.669Z,24.70
2018-08-23T06:55:21.962Z,24.40
2018-08-23T06:57:55.253Z,24.70
2018-08-23T07:00:25.447Z,24.60
2018-08-23T07:02:54.715Z,24.70
2018-08-23T07:05:23.954Z,24.60
2018-08-23T07:07:53.266Z,24.60
2018-08-23T07:10:22.302Z,24.80
2018-08-23T07:12:51.427Z,24.80
2018-08-23T07:15:20.571Z,24.70
2018-08-23T07:17:49.726Z,24.70
2018-08-23T07:20:18.733Z,25.00
2018-08-23T07:22:48.789Z,24.90
2018-08-23T07:25:19.328Z,24.90
2018-08-23T07:27:48.469Z,25.00
2018-08-23T07:30:20.800Z,25.00
2018-08-23T07:32:51.287Z,24.90
2018-08-23T07:35:21.511Z,25.10
2018-08-23T07:37:51.891Z,25.10
2018-08-23T07:40:22.222Z,24.90
2018-08-23T07:42:53.066Z,25.10
2018-08-23T07:45:22.363Z,25.40
2018-08-23T07:47:53.450Z,25.20
2018-08-23T07:50:22.660Z,25.40
2018-08-23T07:52:53.451Z,25.20
2018-08-23T07:55:22.466Z,25.00
2018-08-23T07:57:52.519Z,25.10
2018-08-23T08:00:26.600Z,25.00
2018-08-23T08:02:56.417Z,25.00
2018-08-23T08:05:29.992Z,24.90
2018-08-23T08:07:59.195Z,25.00
2018-08-23T08:10:33.480Z,25.00
2018-08-23T08:13:02.567Z,24.90
2018-08-23T08:15:31.682Z,25.00
2018-08-23T08:18:05.755Z,24.90
2018-08-23T08:20:35.380Z,25.00
2018-08-23T08:23:04.439Z,24.80
2018-08-23T08:25:33.475Z,24.80
2018-08-23T08:28:02.677Z,25.00
2018-08-23T08:30:42.080Z,25.10
2018-08-23T08:33:16.383Z,24.90
2018-08-23T08:35:46.602Z,24.90
2018-08-23T08:38:15.769Z,25.00
2018-08-23T08:40:45.154Z,25.10
2018-08-23T08:43:14.418Z,25.10
2018-08-23T08:45:43.517Z,25.20
2018-08-23T08:48:19.241Z,25.10
2018-08-23T08:51:01.276Z,25.20
2018-08-23T08:53:31.349Z,25.10
2018-08-23T08:56:00.555Z,25.10
2018-08-23T08:58:29.844Z,25.10
2018-08-23T09:00:59.248Z,25.20
2018-08-23T09:03:32.809Z,25.20
2018-08-23T09:06:03.608Z,25.20
2018-08-23T09:08:32.664Z,25.30
2018-08-23T09:11:01.766Z,25.20
2018-08-23T09:13:35.012Z,25.20
2018-08-23T09:16:08.206Z,25.20
2018-08-23T09:18:39.831Z,25.30
2018-08-23T09:21:08.971Z,25.30
2018-08-23T09:23:38.114Z,25.50
2018-08-23T09:26:07.481Z,25.50
2018-08-23T09:28:37.102Z,25.60
2018-08-23T09:31:06.856Z,25.80
2018-08-23T09:33:36.431Z,25.80
2018-08-23T09:36:05.661Z,25.80
2018-08-23T09:38:34.724Z,25.80
2018-08-23T09:41:03.883Z,25.60
2018-08-23T09:43:34.190Z,25.50
2018-08-23T09:46:04.611Z,25.50
2018-08-23T09:48:33.821Z,25.50
2018-08-23T09:51:07.762Z,25.60
2018-08-23T09:53:36.827Z,25.60
2018-08-23T09:56:06.242Z,25.60
2018-08-23T09:58:39.655Z,25.50
2018-08-23T10:01:12.972Z,25.50
2018-08-23T10:03:46.493Z,25.50
2018-08-23T10:06:21.568Z,25.70
2018-08-23T10:08:56.691Z,25.70
2018-08-23T10:11:30.273Z,25.70
2018-08-23T10:14:03.650Z,25.70
2018-08-23T10:16:36.931Z,25.60
2018-08-23T10:19:10.201Z,25.60
2018-08-23T10:21:43.971Z,25.70
2018-08-23T10:24:17.417Z,25.70
2018-08-23T10:26:47.036Z,25.60
2018-08-23T10:29:16.484Z,25.60
2018-08-23T10:31:45.833Z,25.60
2018-08-23T10:34:14.868Z,25.60
2018-08-23T10:36:44.575Z,25.70
2018-08-23T10:39:14.756Z,25.70
2018-08-23T10:41:44.246Z,25.70
2018-08-23T10:44:13.576Z,25.70
2018-08-23T10:46:46.979Z,25.70
2018-08-23T10:49:16.369Z,25.70
2018-08-23T10:51:45.970Z,25.70
2018-08-23T10:54:15.383Z,25.70
2018-08-23T10:56:45.097Z,25.80
2018-08-23T10:59:14.615Z,25.80
2018-08-23T11:01:44.168Z,25.60
2018-08-23T11:04:13.416Z,25.70
2018-08-23T11:06:46.678Z,25.90
2018-08-23T11:09:20.405Z,25.80
2018-08-23T11:11:49.986Z,25.80
2018-08-23T11:14:23.266Z,25.90
2018-08-23T11:16:56.862Z,26.00
2018-08-23T11:19:30.073Z,26.10
2018-08-23T11:21:59.735Z,26.20
2018-08-23T11:24:28.966Z,26.20
2018-08-23T11:26:58.661Z,26.20
2018-08-23T11:29:28.443Z,26.20
2018-08-23T11:31:57.865Z,26.20
2018-08-23T11:34:27.257Z,26.20
2018-08-23T11:36:56.494Z,26.10
2018-08-23T11:39:25.558Z,26.20
2018-08-23T11:41:54.862Z,26.20
2018-08-23T11:44:24.325Z,26.20
2018-08-23T11:46:53.815Z,26.10
2018-08-23T11:49:22.957Z,26.30
2018-08-23T11:51:52.105Z,26.40
2018-08-23T11:54:21.907Z,26.30
2018-08-23T11:56:50.991Z,26.40
2018-08-23T11:59:20.248Z,26.50
2018-08-23T12:01:49.383Z,26.50
2018-08-23T12:04:18.554Z,26.60
2018-08-23T12:06:48.109Z,26.50
2018-08-23T12:09:17.286Z,26.60
2018-08-23T12:11:46.413Z,26.60
2018-08-23T12:14:15.533Z,26.60
2018-08-23T12:16:44.875Z,26.60
2018-08-23T12:19:13.881Z,26.60
2018-08-23T12:21:43.027Z,26.70
2018-08-23T12:24:12.110Z,26.70
2018-08-23T12:26:41.224Z,26.60
2018-08-23T12:29:10.882Z,26.50
2018-08-23T12:31:40.279Z,26.50
2018-08-23T12:34:10.810Z,26.50
2018-08-23T12:36:43.977Z,26.50
2018-08-23T12:39:17.275Z,26.60
2018-08-23T12:41:50.609Z,26.60
2018-08-23T12:44:19.933Z,26.60
2018-08-23T12:46:53.298Z,26.60
2018-08-23T12:49:22.857Z,26.80
2018-08-23T12:51:52.279Z,26.80
2018-08-23T12:54:21.716Z,27.00
2018-08-23T12:56:51.305Z,26.80
2018-08-23T12:59:20.886Z,26.70
2018-08-23T13:01:50.363Z,26.70
2018-08-23T13:04:19.617Z,26.80
2018-08-23T13:06:48.819Z,26.80
2018-08-23T13:09:18.485Z,26.80
2018-08-23T13:11:47.716Z,26.80
2018-08-23T13:14:17.410Z,26.80
2018-08-23T13:16:46.553Z,26.90
2018-08-23T13:19:16.288Z,26.90
2018-08-23T13:21:45.874Z,26.90
2018-08-23T13:24:15.425Z,26.90
2018-08-23T13:26:46.308Z,27.00
2018-08-23T13:29:15.590Z,27.00
2018-08-23T13:31:45.672Z,27.00
2018-08-23T13:34:15.359Z,27.00
2018-08-23T13:36:44.469Z,27.10
2018-08-23T13:39:14.180Z,26.90
2018-08-23T13:41:43.276Z,26.90
2018-08-23T13:44:12.790Z,27.00
2018-08-23T13:46:41.835Z,26.90
2018-08-23T13:49:10.917Z,26.90
2018-08-23T13:51:40.244Z,26.90
2018-08-23T13:54:09.348Z,26.90
2018-08-23T13:56:38.553Z,26.90
2018-08-23T13:59:07.945Z,26.80
2018-08-23T14:01:37.214Z,26.80
2018-08-23T14:04:06.559Z,26.80
2018-08-23T14:06:35.669Z,26.80
2018-08-23T14:09:06.194Z,26.70
2018-08-23T14:11:35.327Z,26.70
2018-08-23T14:14:04.648Z,26.70
2018-08-23T14:16:34.046Z,26.70
2018-08-23T14:19:03.603Z,26.70
2018-08-23T14:21:32.880Z,26.90
2018-08-23T14:24:02.199Z,26.90
2018-08-23T14:26:31.554Z,26.80
2018-08-23T14:29:00.670Z,26.80
2018-08-23T14:31:29.720Z,26.90
2018-08-23T14:33:58.949Z,26.90
2018-08-23T14:36:28.248Z,26.90
2018-08-23T14:38:57.519Z,26.90
2018-08-23T14:41:26.784Z,26.80
2018-08-23T14:43:55.887Z,26.80
2018-08-23T14:46:29.177Z,26.80
2018-08-23T14:48:58.327Z,26.80
2018-08-23T14:51:27.631Z,26.90
2018-08-23T14:53:56.873Z,26.80
2018-08-23T14:56:30.409Z,26.70
2018-08-23T14:58:59.601Z,26.60
2018-08-23T15:01:29.288Z,26.60
2018-08-23T15:03:58.449Z,26.60
2018-08-23T15:06:28.060Z,26.70
